createdAt,value
2019-01-23T00:02:01.336Z,126.75
2019-01-23T00:04:32.079Z,106.75
2019-01-23T00:07:02.944Z,119.40
2019-01-23T00:09:33.678Z,119.25
2019-01-23T00:12:04.470Z,110.60
2019-01-23T00:14:35.331Z,108.00
2019-01-23T00:17:06.231Z,117.75
2019-01-23T00:19:36.918Z,115.25
2019-01-23T00:22:07.719Z,109.25
2019-01-23T00:24:38.261Z,115.80
2019-01-23T00:27:09.352Z,114.50
2019-01-23T00:29:40.245Z,109.25
2019-01-23T00:32:10.957Z,121.50
2019-01-23T00:34:41.601Z,109.75
2019-01-23T00:37:13.248Z,109.00
2019-01-23T00:39:44.120Z,120.75
2019-01-23T00:42:15.028Z,115.00
2019-01-23T00:44:48.500Z,113.00
2019-01-23T00:47:22.310Z,107.00
2019-01-23T00:49:53.193Z,106.00
2019-01-23T00:52:24.905Z,115.00
2019-01-23T00:55:00.205Z,110.75
2019-01-23T00:57:30.959Z,110.60
2019-01-23T01:00:01.813Z,113.60
2019-01-23T01:02:32.907Z,109.00
2019-01-23T01:05:03.821Z,105.80
2019-01-23T01:07:34.887Z,116.20
2019-01-23T01:10:07.716Z,113.60
2019-01-23T01:12:38.650Z,109.50
2019-01-23T01:15:13.279Z,113.75
2019-01-23T01:17:42.130Z,117.60
2019-01-23T01:20:12.818Z,109.25
2019-01-23T01:22:43.768Z,106.40
2019-01-23T01:25:15.867Z,103.00
2019-01-23T01:27:46.606Z,107.60
2019-01-23T01:30:19.161Z,100.00
2019-01-23T01:32:49.944Z,108.50
2019-01-23T01:35:20.804Z,114.00
2019-01-23T01:37:51.481Z,108.20
2019-01-23T01:40:22.195Z,106.25
2019-01-23T01:42:52.899Z,105.25
2019-01-23T01:45:23.632Z,109.00
2019-01-23T01:47:54.499Z,98.50
2019-01-23T01:50:25.193Z,105.75
2019-01-23T01:52:55.955Z,96.75
2019-01-23T01:55:26.845Z,106.00
2019-01-23T01:58:00.547Z,106.00
2019-01-23T02:00:31.200Z,107.40
2019-01-23T02:03:02.115Z,105.80
2019-01-23T02:05:32.981Z,109.75
2019-01-23T02:08:03.898Z,96.50
2019-01-23T02:10:34.661Z,107.25
2019-01-23T02:13:05.476Z,105.25
2019-01-23T02:15:36.215Z,107.80
2019-01-23T02:18:07.117Z,106.00
2019-01-23T02:20:37.891Z,108.60
2019-01-23T02:23:08.657Z,99.80
2019-01-23T02:25:39.369Z,103.33
2019-01-23T02:28:10.225Z,103.80
2019-01-23T02:30:40.959Z,104.50
2019-01-23T02:33:11.677Z,106.75
2019-01-23T02:35:42.404Z,109.25
2019-01-23T02:38:13.175Z,110.00
2019-01-23T02:40:44.098Z,111.00
2019-01-23T02:43:14.965Z,108.20
2019-01-23T02:45:45.726Z,105.20
2019-01-23T02:48:16.790Z,106.60
2019-01-23T02:50:47.484Z,105.40
2019-01-23T02:53:18.299Z,107.60
2019-01-23T02:55:49.064Z,108.25
2019-01-23T02:58:19.871Z,108.50
2019-01-23T03:00:50.634Z,97.00
2019-01-23T03:03:21.443Z,109.40
2019-01-23T03:05:52.222Z,106.75
2019-01-23T03:08:23.301Z,120.00
2019-01-23T03:10:54.203Z,112.75
2019-01-23T03:13:24.961Z,108.80
2019-01-23T03:15:56.618Z,102.00
2019-01-23T03:18:27.369Z,105.00
2019-01-23T03:20:57.935Z,107.60
2019-01-23T03:23:28.830Z,102.00
2019-01-23T03:25:59.608Z,106.80
2019-01-23T03:28:30.709Z,103.60
2019-01-23T03:31:01.611Z,106.40
2019-01-23T03:33:32.377Z,107.20
2019-01-23T03:36:03.073Z,101.50
2019-01-23T03:38:33.828Z,102.60
2019-01-23T03:41:04.628Z,106.00
2019-01-23T03:43:35.387Z,102.40
2019-01-23T03:46:06.187Z,110.50
2019-01-23T03:48:36.995Z,105.20
2019-01-23T03:51:07.829Z,104.60
2019-01-23T03:53:39.818Z,105.00
2019-01-23T03:56:10.567Z,107.25
2019-01-23T03:58:41.351Z,107.00
2019-01-23T04:01:11.840Z,102.60
2019-01-23T04:03:42.696Z,102.00
2019-01-23T04:06:13.352Z,95.20
2019-01-23T04:08:44.214Z,112.50
2019-01-23T04:11:14.751Z,104.20
2019-01-23T04:13:45.847Z,104.50
2019-01-23T04:16:16.619Z,116.75
2019-01-23T04:18:50.216Z,110.00
2019-01-23T04:21:21.661Z,113.60
2019-01-23T04:23:52.429Z,116.60
2019-01-23T04:26:23.162Z,104.00
2019-01-23T04:28:54.113Z,106.00
2019-01-23T04:31:24.684Z,108.00
2019-01-23T04:33:55.806Z,106.00
2019-01-23T04:36:26.580Z,107.60
2019-01-23T04:38:57.482Z,111.80
2019-01-23T04:41:28.247Z,105.75
2019-01-23T04:43:59.175Z,107.75
2019-01-23T04:46:29.868Z,114.20
2019-01-23T04:49:00.530Z,112.25
2019-01-23T04:52:02.488Z,111.80
2019-01-23T04:54:33.377Z,116.80
2019-01-23T04:57:04.069Z,106.80
2019-01-23T04:59:34.932Z,111.00
2019-01-23T05:02:05.750Z,108.40
2019-01-23T05:04:36.663Z,113.50
2019-01-23T05:07:07.321Z,111.20
2019-01-23T05:09:38.118Z,121.50
2019-01-23T05:12:08.826Z,118.50
2019-01-23T05:14:39.658Z,105.20
2019-01-23T05:17:10.267Z,112.80
2019-01-23T05:19:41.054Z,112.75
2019-01-23T05:22:11.605Z,107.20
2019-01-23T05:24:42.409Z,114.00
2019-01-23T05:27:13.083Z,110.00
2019-01-23T05:29:43.892Z,125.20
2019-01-23T05:32:14.659Z,107.40
2019-01-23T05:34:45.386Z,109.25
2019-01-23T05:37:16.114Z,109.60
2019-01-23T05:39:46.896Z,108.60
2019-01-23T05:42:17.486Z,113.75
2019-01-23T05:44:48.275Z,114.00
2019-01-23T05:47:19.086Z,111.60
2019-01-23T05:49:49.958Z,108.75
2019-01-23T05:52:20.717Z,116.20
2019-01-23T05:54:51.544Z,112.50
2019-01-23T05:57:24.434Z,109.50
2019-01-23T06:00:02.121Z,111.00
2019-01-23T06:02:27.721Z,111.50
2019-01-23T06:04:58.454Z,114.25
2019-01-23T06:07:29.106Z,120.80
2019-01-23T06:09:59.889Z,109.00
2019-01-23T06:12:30.651Z,113.50
2019-01-23T06:15:01.489Z,115.00
2019-01-23T06:17:32.375Z,112.50
2019-01-23T06:20:02.943Z,107.00
2019-01-23T06:22:33.625Z,109.40
2019-01-23T06:25:04.407Z,116.40
2019-01-23T06:27:35.008Z,110.00
2019-01-23T06:30:10.480Z,110.60
2019-01-23T06:32:41.003Z,106.50
2019-01-23T06:35:11.866Z,111.40
2019-01-23T06:37:42.610Z,111.50
2019-01-23T06:40:13.494Z,116.25
2019-01-23T06:42:44.187Z,110.60
2019-01-23T06:45:15.883Z,112.40
2019-01-23T06:47:46.853Z,112.60
2019-01-23T06:50:19.181Z,109.40
2019-01-23T06:52:49.963Z,117.00
2019-01-23T06:55:20.776Z,112.40
2019-01-23T06:57:51.572Z,118.25
2019-01-23T07:00:26.378Z,116.60
2019-01-23T07:02:57.225Z,143.50
2019-01-23T07:05:28.020Z,134.60
2019-01-23T07:07:58.794Z,131.25
2019-01-23T07:10:29.587Z,144.20
2019-01-23T07:13:00.355Z,123.00
2019-01-23T07:15:31.146Z,134.60
2019-01-23T07:18:01.852Z,141.00
2019-01-23T07:20:32.618Z,134.00
2019-01-23T07:23:03.394Z,128.20
2019-01-23T07:25:34.216Z,154.50
2019-01-23T07:28:04.993Z,145.00
2019-01-23T07:30:41.086Z,144.25
2019-01-23T07:33:11.856Z,139.25
2019-01-23T07:35:42.637Z,161.20
2019-01-23T07:38:13.317Z,149.60
2019-01-23T07:40:44.007Z,130.25
2019-01-23T07:43:14.917Z,153.25
2019-01-23T07:45:45.705Z,171.60
2019-01-23T07:48:17.113Z,157.75
2019-01-23T07:50:47.900Z,146.60
2019-01-23T07:53:18.636Z,180.80
2019-01-23T07:55:49.361Z,163.80
2019-01-23T07:58:20.118Z,168.40
2019-01-23T08:00:50.892Z,170.40
2019-01-23T08:03:21.685Z,161.60
2019-01-23T08:05:52.608Z,160.25
2019-01-23T08:08:23.330Z,163.75
2019-01-23T08:10:54.095Z,161.80
2019-01-23T08:13:24.953Z,179.50
2019-01-23T08:15:55.634Z,166.00
2019-01-23T08:18:26.450Z,166.75
2019-01-23T08:20:57.273Z,164.80
2019-01-23T08:23:27.948Z,177.20
2019-01-23T08:25:58.843Z,164.25
2019-01-23T08:28:29.613Z,168.40
2019-01-23T08:31:00.452Z,169.00
2019-01-23T08:33:31.182Z,185.60
2019-01-23T08:36:01.977Z,172.60
2019-01-23T08:38:32.775Z,175.25
2019-01-23T08:41:03.582Z,170.00
2019-01-23T08:43:34.420Z,180.20
2019-01-23T08:46:05.330Z,185.20
2019-01-23T08:48:36.087Z,164.00
2019-01-23T08:51:06.692Z,170.75
2019-01-23T08:53:37.485Z,162.75
2019-01-23T08:56:08.431Z,181.25
2019-01-23T08:58:39.134Z,169.80
2019-01-23T09:01:10.040Z,182.60
2019-01-23T09:03:40.906Z,171.50
2019-01-23T09:06:11.716Z,169.50
2019-01-23T09:08:42.519Z,180.50
2019-01-23T09:11:13.306Z,184.80
2019-01-23T09:13:44.031Z,168.25
2019-01-23T09:16:14.827Z,181.50
2019-01-23T09:18:45.429Z,209.80
2019-01-23T09:21:16.192Z,250.40
2019-01-23T09:23:46.975Z,180.80
2019-01-23T09:26:17.877Z,175.75
2019-01-23T09:28:48.737Z,171.25
2019-01-23T09:31:44.610Z,179.75
2019-01-23T09:34:59.295Z,162.80
2019-01-23T09:38:14.060Z,186.60
2019-01-23T09:41:12.851Z,168.25
2019-01-23T09:44:30.076Z,182.25
2019-01-23T09:47:17.912Z,170.25
2019-01-23T09:50:29.907Z,157.75
2019-01-23T09:53:11.981Z,176.80
2019-01-23T09:55:42.898Z,149.00
2019-01-23T09:58:13.680Z,151.25
2019-01-23T10:00:44.360Z,154.60
2019-01-23T10:03:15.237Z,145.25
2019-01-23T10:05:45.896Z,148.60
2019-01-23T10:08:16.712Z,158.50
2019-01-23T10:10:47.473Z,155.60
2019-01-23T10:13:18.385Z,144.00
2019-01-23T10:16:11.130Z,143.60
2019-01-23T10:18:41.976Z,136.50
2019-01-23T10:21:12.706Z,148.60
2019-01-23T10:23:43.482Z,154.40
2019-01-23T10:26:14.115Z,156.50
2019-01-23T10:28:44.775Z,137.00
2019-01-23T10:31:15.438Z,159.75
2019-01-23T10:33:46.363Z,131.25
2019-01-23T10:36:17.124Z,154.20
2019-01-23T10:38:47.944Z,145.25
2019-01-23T10:41:18.704Z,142.25
2019-01-23T10:43:49.504Z,140.50
2019-01-23T10:46:20.256Z,143.50
2019-01-23T10:48:51.046Z,150.80
2019-01-23T10:51:21.578Z,141.00
2019-01-23T10:53:52.324Z,141.75
2019-01-23T10:56:22.996Z,130.50
2019-01-23T10:58:53.744Z,129.60
2019-01-23T11:01:24.473Z,138.00
2019-01-23T11:03:55.201Z,147.60
2019-01-23T11:06:26.944Z,121.20
2019-01-23T11:08:57.829Z,131.40
2019-01-23T11:11:28.552Z,141.25
2019-01-23T11:13:59.281Z,131.20
2019-01-23T11:16:30.001Z,124.75
2019-01-23T11:19:00.749Z,141.80
2019-01-23T11:21:31.421Z,136.40
2019-01-23T11:24:02.101Z,138.00
2019-01-23T11:26:32.786Z,139.50
2019-01-23T11:29:04.509Z,131.00
2019-01-23T11:31:35.398Z,129.50
2019-01-23T11:34:06.295Z,145.00
2019-01-23T11:36:37.069Z,146.80
2019-01-23T11:39:10.134Z,143.80
2019-01-23T11:41:40.965Z,142.25
2019-01-23T11:44:11.917Z,135.00
2019-01-23T11:46:42.668Z,122.60
2019-01-23T11:49:13.478Z,135.50
2019-01-23T11:51:44.225Z,137.75
2019-01-23T11:54:14.859Z,142.50
2019-01-23T11:56:45.626Z,147.60
2019-01-23T11:59:16.513Z,139.25
2019-01-23T12:01:47.287Z,142.20
2019-01-23T12:04:18.073Z,130.60
2019-01-23T12:06:48.976Z,147.75
2019-01-23T12:09:19.686Z,125.75
2019-01-23T12:14:45.866Z,122.20
2019-01-23T12:17:16.546Z,118.20
2019-01-23T12:19:47.373Z,113.00
2019-01-23T12:22:18.009Z,110.40
2019-01-23T12:24:48.795Z,117.25
2019-01-23T12:27:19.472Z,111.00
2019-01-23T12:29:50.282Z,103.80
2019-01-23T12:32:20.962Z,117.75
2019-01-23T12:34:51.752Z,110.60
2019-01-23T12:37:22.519Z,119.60
2019-01-23T12:39:53.475Z,123.00
2019-01-23T12:42:24.192Z,116.00
2019-01-23T12:44:54.938Z,120.50
2019-01-23T12:47:25.526Z,117.40
2019-01-23T12:49:56.099Z,105.25
2019-01-23T12:52:26.808Z,103.50
2019-01-23T12:54:57.666Z,126.75
2019-01-23T12:57:28.530Z,124.75
2019-01-23T13:00:05.065Z,133.00
2019-01-23T13:02:32.969Z,156.40
2019-01-23T13:05:03.651Z,130.00
2019-01-23T13:07:34.312Z,154.00
2019-01-23T13:10:05.653Z,168.80
2019-01-23T13:12:36.428Z,123.50
2019-01-23T13:15:07.719Z,152.20
2019-01-23T13:17:38.490Z,135.20
2019-01-23T13:20:11.091Z,139.60
2019-01-23T13:22:41.895Z,124.60
2019-01-23T13:25:16.651Z,111.80
2019-01-23T13:27:47.460Z,151.80
2019-01-23T13:30:20.215Z,125.00
2019-01-23T13:32:51.001Z,114.40
2019-01-23T13:35:23.893Z,113.50
2019-01-23T13:37:54.592Z,107.20
2019-01-23T13:40:27.508Z,112.80
2019-01-23T13:42:59.317Z,108.80
2019-01-23T13:45:30.004Z,126.20
2019-01-23T13:48:00.775Z,116.80
2019-01-23T13:50:31.471Z,110.25
2019-01-23T13:53:02.299Z,116.25
2019-01-23T13:55:33.160Z,110.20
2019-01-23T13:58:03.964Z,103.75
2019-01-23T14:00:41.820Z,113.40
2019-01-23T14:03:12.600Z,105.60
2019-01-23T14:05:43.467Z,102.75
2019-01-23T14:08:14.245Z,106.60
2019-01-23T14:10:45.160Z,117.50
2019-01-23T14:13:15.922Z,106.50
2019-01-23T14:15:46.595Z,172.60
2019-01-23T14:18:17.481Z,109.75
2019-01-23T14:20:48.368Z,107.60
2019-01-23T14:23:18.938Z,123.20
2019-01-23T14:25:49.762Z,103.00
2019-01-23T14:28:20.512Z,106.40
2019-01-23T14:30:51.304Z,100.40
2019-01-23T14:33:22.090Z,102.20
2019-01-23T14:35:52.671Z,106.25
2019-01-23T14:38:23.446Z,106.40
2019-01-23T14:40:54.026Z,103.80
2019-01-23T14:43:24.814Z,105.00
2019-01-23T14:45:55.480Z,114.00
2019-01-23T14:48:26.512Z,105.50
2019-01-23T14:50:57.490Z,100.50
2019-01-23T14:53:28.252Z,104.60
2019-01-23T14:55:59.050Z,105.80
2019-01-23T14:58:29.828Z,122.50
2019-01-23T15:01:00.613Z,104.20
2019-01-23T15:03:31.425Z,104.00
2019-01-23T15:06:02.191Z,105.60
2019-01-23T15:08:32.944Z,103.50
2019-01-23T15:11:03.624Z,128.60
2019-01-23T15:13:34.454Z,102.80
2019-01-23T15:16:05.214Z,99.60
2019-01-23T15:18:36.102Z,104.00
2019-01-23T15:21:06.795Z,99.25
2019-01-23T15:23:37.568Z,101.80
2019-01-23T15:26:08.352Z,91.50
2019-01-23T15:28:39.128Z,100.60
2019-01-23T15:31:09.973Z,186.00
2019-01-23T15:33:40.646Z,144.00
2019-01-23T15:36:11.366Z,113.60
2019-01-23T15:38:42.046Z,124.20
2019-01-23T15:41:12.766Z,102.00
2019-01-23T15:43:43.524Z,98.25
2019-01-23T15:46:14.319Z,94.00
2019-01-23T15:48:45.133Z,97.50
2019-01-23T15:51:15.881Z,99.20
2019-01-23T15:53:46.762Z,93.80
2019-01-23T15:56:17.582Z,95.60
2019-01-23T15:58:48.478Z,92.50
2019-01-23T16:01:19.203Z,101.40
2019-01-23T16:03:49.895Z,100.00
2019-01-23T16:06:20.579Z,97.00
2019-01-23T16:08:51.415Z,93.80
2019-01-23T16:11:22.029Z,99.00
2019-01-23T16:13:52.867Z,96.20
2019-01-23T16:16:23.657Z,97.75
2019-01-23T16:18:54.500Z,112.50
2019-01-23T16:21:28.666Z,91.20
2019-01-23T16:24:00.280Z,99.80
2019-01-23T16:26:31.093Z,105.60
2019-01-23T16:29:01.944Z,91.40
2019-01-23T16:31:32.650Z,120.25
2019-01-23T16:34:03.418Z,132.20
2019-01-23T16:36:33.991Z,95.00
2019-01-23T16:39:05.704Z,90.50
2019-01-23T16:41:36.384Z,81.20
2019-01-23T16:44:07.172Z,82.00
2019-01-23T16:46:38.053Z,95.25
2019-01-23T16:49:08.832Z,104.60
2019-01-23T16:51:39.521Z,87.80
2019-01-23T16:54:10.393Z,102.25
2019-01-23T16:56:41.112Z,85.25
2019-01-23T16:59:11.864Z,82.60
2019-01-23T17:01:42.638Z,93.80
2019-01-23T17:04:13.362Z,89.60
2019-01-23T17:06:44.321Z,115.75
2019-01-23T17:09:15.218Z,264.00
2019-01-23T17:11:45.793Z,116.80
2019-01-23T17:14:16.548Z,85.80
2019-01-23T17:16:47.236Z,84.60
2019-01-23T17:19:18.047Z,85.20
2019-01-23T17:21:48.617Z,79.00
2019-01-23T17:24:20.308Z,81.00
2019-01-23T17:26:50.985Z,76.60
2019-01-23T17:29:21.808Z,83.80
2019-01-23T17:31:52.486Z,86.00
2019-01-23T17:34:23.238Z,84.60
2019-01-23T17:36:53.918Z,85.40
2019-01-23T17:39:24.724Z,79.00
2019-01-23T17:41:55.295Z,80.00
2019-01-23T17:44:26.121Z,79.60
2019-01-23T17:46:57.349Z,99.00
2019-01-23T17:49:28.052Z,89.00
2019-01-23T17:51:58.851Z,84.20
2019-01-23T17:54:29.626Z,94.80
2019-01-23T17:57:00.301Z,83.80
2019-01-23T17:59:31.582Z,73.80
2019-01-23T18:02:02.536Z,84.25
2019-01-23T18:04:33.413Z,87.25
2019-01-23T18:07:04.296Z,86.00
2019-01-23T18:09:36.002Z,73.00
2019-01-23T18:12:06.868Z,76.60
2019-01-23T18:14:37.552Z,85.40
2019-01-23T18:17:08.142Z,72.50
2019-01-23T18:19:38.914Z,73.20
2019-01-23T18:22:09.690Z,99.40
2019-01-23T18:24:40.387Z,74.80
2019-01-23T18:27:11.140Z,81.80
2019-01-23T18:29:42.122Z,76.40
2019-01-23T18:32:12.839Z,74.60
2019-01-23T18:35:18.667Z,70.20
2019-01-23T18:38:13.354Z,86.75
2019-01-23T18:41:24.951Z,74.00
2019-01-23T18:44:37.764Z,82.50
2019-01-23T18:47:57.683Z,85.50
2019-01-23T18:51:02.456Z,76.00
2019-01-23T18:53:34.200Z,81.00
2019-01-23T18:56:04.959Z,77.00
2019-01-23T18:58:35.843Z,85.20
2019-01-23T19:01:06.629Z,74.80
2019-01-23T19:03:37.286Z,97.40
2019-01-23T19:06:08.186Z,93.75
2019-01-23T19:08:38.844Z,79.00
2019-01-23T19:11:09.542Z,81.00
2019-01-23T19:13:40.340Z,79.75
2019-01-23T19:16:11.220Z,77.00
2019-01-23T19:18:43.105Z,75.75
2019-01-23T19:21:13.921Z,84.00
2019-01-23T19:23:44.520Z,75.00
2019-01-23T19:26:15.285Z,82.00
2019-01-23T19:28:46.069Z,83.00
2019-01-23T19:31:16.948Z,73.40
2019-01-23T19:33:47.755Z,76.00
2019-01-23T19:36:18.609Z,88.00
2019-01-23T19:38:49.401Z,87.00
2019-01-23T19:41:20.770Z,83.20
2019-01-23T19:43:51.802Z,83.50
2019-01-23T19:46:22.723Z,88.00
2019-01-23T19:48:53.692Z,76.25
2019-01-23T19:51:24.512Z,86.25
2019-01-23T19:53:55.159Z,77.75
2019-01-23T19:56:25.912Z,92.60
2019-01-23T19:58:56.533Z,78.00
2019-01-23T20:01:27.406Z,82.75
2019-01-23T20:03:58.053Z,88.50
2019-01-23T20:06:29.061Z,83.75
2019-01-23T20:08:59.833Z,85.40
2019-01-23T20:11:30.746Z,89.50
2019-01-23T20:14:01.515Z,78.00
2019-01-23T20:16:32.337Z,97.60
2019-01-23T20:19:05.210Z,102.80
2019-01-23T20:21:35.848Z,85.00
2019-01-23T20:24:06.595Z,76.20
2019-01-23T20:26:37.496Z,88.40
2019-01-23T20:29:08.169Z,83.00
2019-01-23T20:31:39.097Z,92.25
2019-01-23T20:34:09.840Z,90.80
2019-01-23T20:36:40.623Z,93.60
2019-01-23T20:39:11.827Z,86.00
2019-01-23T20:41:42.717Z,89.40
2019-01-23T20:44:13.728Z,92.50
2019-01-23T20:46:44.780Z,88.50
2019-01-23T20:49:15.446Z,98.20
2019-01-23T20:51:46.281Z,96.40
2019-01-23T20:54:17.107Z,96.20
2019-01-23T20:56:47.950Z,90.25
2019-01-23T20:59:18.588Z,95.20
2019-01-23T21:01:50.318Z,88.75
2019-01-23T21:04:20.960Z,84.60
2019-01-23T21:06:51.870Z,90.80
2019-01-23T21:09:22.550Z,100.20
2019-01-23T21:11:53.624Z,85.00
2019-01-23T21:14:24.365Z,83.25
2019-01-23T21:16:55.226Z,90.50
2019-01-23T21:19:26.000Z,89.00
2019-01-23T21:21:56.737Z,83.00
2019-01-23T21:24:27.628Z,85.50
2019-01-23T21:26:58.427Z,100.40
2019-01-23T21:29:29.154Z,90.75
2019-01-23T21:32:00.772Z,83.40
2019-01-23T21:34:31.559Z,85.25
2019-01-23T21:37:02.262Z,98.40
2019-01-23T21:39:33.185Z,85.00
2019-01-23T21:42:03.908Z,88.00
2019-01-23T21:44:34.729Z,95.00
2019-01-23T21:47:05.483Z,94.00
2019-01-23T21:49:36.267Z,84.20
2019-01-23T21:52:06.774Z,83.00
2019-01-23T21:54:37.508Z,79.20
2019-01-23T21:57:08.229Z,85.00
2019-01-23T21:59:38.891Z,81.00
2019-01-23T22:02:09.815Z,91.00
2019-01-23T22:04:40.576Z,83.00
2019-01-23T22:07:11.248Z,74.60
2019-01-23T22:09:42.129Z,83.80
2019-01-23T22:12:12.833Z,82.00
2019-01-23T22:14:43.578Z,81.40
2019-01-23T22:17:14.300Z,82.80
2019-01-23T22:19:44.969Z,85.20
2019-01-23T22:22:15.652Z,78.40
2019-01-23T22:24:46.327Z,76.60
2019-01-23T22:27:17.091Z,84.20
2019-01-23T22:29:47.890Z,76.20
2019-01-23T22:32:18.619Z,76.25
2019-01-23T22:34:49.358Z,80.50
2019-01-23T22:37:20.045Z,82.40
2019-01-23T22:39:50.828Z,82.00
2019-01-23T22:42:21.542Z,86.00
2019-01-23T22:44:52.321Z,80.40
2019-01-23T22:47:23.084Z,90.40
2019-01-23T22:49:53.752Z,82.20
2019-01-23T22:52:24.445Z,76.20
2019-01-23T22:54:55.233Z,75.20
2019-01-23T22:57:25.931Z,83.00
2019-01-23T22:59:56.668Z,81.80
2019-01-23T23:02:27.465Z,83.00
2019-01-23T23:04:59.906Z,83.75
2019-01-23T23:07:30.763Z,80.25
2019-01-23T23:10:01.670Z,75.60
2019-01-23T23:12:32.413Z,76.50
2019-01-23T23:15:03.376Z,79.40
2019-01-23T23:17:34.130Z,85.00
2019-01-23T23:20:05.240Z,79.80
2019-01-23T23:22:35.840Z,71.00
2019-01-23T23:25:06.848Z,79.60
2019-01-23T23:27:39.480Z,76.20
2019-01-23T23:30:11.644Z,75.40
2019-01-23T23:32:42.449Z,78.60
2019-01-23T23:35:13.405Z,80.00
2019-01-23T23:37:44.228Z,75.60
2019-01-23T23:40:14.905Z,80.75
2019-01-23T23:42:45.692Z,73.00
2019-01-23T23:45:16.463Z,82.40
2019-01-23T23:47:47.221Z,78.50
2019-01-23T23:50:18.054Z,79.80
2019-01-23T23:52:48.795Z,83.25
2019-01-23T23:55:19.621Z,78.50
2019-01-23T23:57:50.460Z,73.80
